Time;durP1;ratioP1;P1;durP2;ratioP2;P2;SDS_P1;SDS_P2;PMS_P1;PMS_P2;Temp;Humidity;BMP_temperature;BMP_pressure;BME280_temperature;BME280_humidity;BME280_pressure;Samples;Min_cycle;Max_cycle;Signal;HPM_P1;HPM_P2
2023/04/14 00:00:52;;;;;;;63.17;30.73;;;;;;;-145.18;100.00;60484.78;5048017;28;20053;-69
2023/04/14 00:03:18;;;;;;;70.23;29.70;;;;;;;-145.18;100.00;60484.78;5043093;28;20042;-74
2023/04/14 00:05:43;;;;;;;70.43;30.33;;;;;;;-145.18;100.00;60484.78;5043072;28;20029;-68
2023/04/14 00:08:09;;;;;;;74.67;34.63;;;;;;;-145.18;100.00;60484.78;5040156;28;20393;-70
2023/04/14 00:10:34;;;;;;;73.83;31.53;;;;;;;-145.18;100.00;60484.78;5045796;28;20033;-69
2023/04/14 00:13:00;;;;;;;76.60;31.40;;;;;;;-145.18;100.00;60484.78;5024387;28;20102;-69
2023/04/14 00:15:26;;;;;;;67.20;31.40;;;;;;;-145.18;100.00;60484.78;5045035;28;20533;-70
2023/04/14 00:17:51;;;;;;;71.27;32.40;;;;;;;-145.18;100.00;60484.78;5044551;28;20068;-69
2023/04/14 00:20:17;;;;;;;71.27;29.40;;;;;;;-145.18;100.00;60484.78;5048923;28;20029;-69
2023/04/14 00:22:43;;;;;;;75.40;31.77;;;;;;;-145.18;100.00;60484.78;5037281;28;20432;-69
2023/04/14 00:25:09;;;;;;;72.80;30.20;;;;;;;-145.18;100.00;60484.78;5052439;28;20021;-69
2023/04/14 00:27:34;;;;;;;68.90;29.63;;;;;;;-145.18;100.00;60484.78;5024097;28;20123;-69
2023/04/14 00:30:00;;;;;;;70.23;29.90;;;;;;;-145.18;100.00;60484.78;5032321;28;21001;-69
2023/04/14 00:32:25;;;;;;;61.57;27.20;;;;;;;-145.18;100.00;60484.78;5047487;28;20037;-69
2023/04/14 00:34:51;;;;;;;60.70;26.77;;;;;;;-145.18;100.00;60484.78;5036198;28;20021;-69
2023/04/14 00:37:16;;;;;;;62.30;26.87;;;;;;;-145.18;100.00;60484.78;5040692;28;20037;-69
2023/04/14 00:39:42;;;;;;;59.67;25.73;;;;;;;-145.18;100.00;60484.78;5048718;28;20034;-69
2023/04/14 00:42:07;;;;;;;65.63;28.37;;;;;;;-145.18;100.00;60484.78;5037222;28;20394;-69
2023/04/14 00:44:33;;;;;;;64.43;28.63;;;;;;;-145.18;100.00;60484.78;5037983;28;20098;-69
2023/04/14 00:47:00;;;;;;;64.53;27.07;;;;;;;-145.18;100.00;60484.78;5038784;28;20032;-69
2023/04/14 00:49:25;;;;;;;66.27;27.77;;;;;;;-145.18;100.00;60484.78;5037038;28;20389;-68
2023/04/14 00:51:51;;;;;;;68.70;26.37;;;;;;;-145.18;100.00;60484.78;5041397;28;20025;-69
2023/04/14 00:54:19;;;;;;;69.80;28.47;;;;;;;-145.18;100.00;60484.78;5047996;28;20128;-70
2023/04/14 00:56:46;;;;;;;69.50;27.50;;;;;;;-145.18;100.00;60484.78;5043970;28;20041;-69
2023/04/14 00:59:12;;;;;;;73.43;29.83;;;;;;;-145.18;100.00;60484.78;5047733;28;20082;-69
2023/04/14 01:04:14;;;;;;;72.47;28.67;;;;;;;-145.18;100.00;60484.78;5089836;28;20047;-65
2023/04/14 01:06:40;;;;;;;79.53;30.63;;;;;;;-145.18;100.00;60484.78;5091763;28;20036;-65
2023/04/14 01:09:08;;;;;;;81.47;31.43;;;;;;;-145.18;100.00;60484.78;5093181;28;20020;-65
2023/04/14 01:11:53;;;;;;;80.43;32.93;;;;;;;-145.18;100.00;60484.78;5093242;28;20031;-65
2023/04/14 01:14:49;;;;;;;68.60;28.83;;;;;;;-145.18;100.00;60484.78;5089838;28;20511;-65
2023/04/14 01:17:31;;;;;;;80.83;31.27;;;;;;;-145.18;100.00;60484.78;5063449;28;20054;-65
2023/04/14 01:20:27;;;;;;;84.97;33.60;;;;;;;-145.18;100.00;60484.78;5090801;28;20082;-65
2023/04/14 01:23:05;;;;;;;90.60;34.97;;;;;;;-145.18;100.00;60484.78;5088248;28;20093;-65
2023/04/14 01:26:15;;;;;;;85.23;34.80;;;;;;;-145.18;100.00;60484.78;5090866;28;20028;-64
2023/04/14 01:29:19;;;;;;;104.07;39.00;;;;;;;-145.18;100.00;60484.78;5007293;28;20034;-65
2023/04/14 01:31:54;;;;;;;89.10;38.23;;;;;;;-145.18;100.00;60484.78;4950511;29;20460;-65
2023/04/14 01:34:24;;;;;;;97.20;38.33;;;;;;;-145.18;100.00;60484.78;4952016;29;20459;-65
2023/04/14 01:37:07;;;;;;;96.73;37.00;;;;;;;-145.18;100.00;60484.78;4952207;29;20487;-65
2023/04/14 01:39:40;;;;;;;92.37;37.57;;;;;;;-145.18;100.00;60484.78;4952070;29;20039;-65
2023/04/14 01:42:10;;;;;;;99.30;38.90;;;;;;;-145.18;100.00;60484.78;4950261;29;20039;-65
2023/04/14 01:44:38;;;;;;;98.67;39.93;;;;;;;-145.18;100.00;60484.78;4951953;29;20046;-64
2023/04/14 01:47:06;;;;;;;98.13;38.60;;;;;;;-145.18;100.00;60484.78;4950699;28;20533;-65
2023/04/14 01:49:37;;;;;;;93.47;37.93;;;;;;;-145.18;100.00;60484.78;4948657;29;20027;-65
2023/04/14 01:52:07;;;;;;;100.60;38.57;;;;;;;-145.18;100.00;60484.78;4951034;29;20522;-66
2023/04/14 01:54:33;;;;;;;91.83;38.43;;;;;;;-145.18;100.00;60484.78;4950672;29;20041;-65
2023/04/14 01:57:01;;;;;;;94.67;37.60;;;;;;;-145.18;100.00;60484.78;4950212;29;20419;-65
2023/04/14 01:59:29;;;;;;;98.00;37.87;;;;;;;-145.18;100.00;60484.78;4981960;28;20485;-65
2023/04/14 02:01:56;;;;;;;101.70;39.60;;;;;;;-145.18;100.00;60484.78;5002984;28;20029;-65
2023/04/14 02:04:26;;;;;;;101.87;40.93;;;;;;;-145.18;100.00;60484.78;5008914;28;20060;-65
2023/04/14 02:06:55;;;;;;;101.70;41.13;;;;;;;-145.18;100.00;60484.78;5049226;28;20063;-65
2023/04/14 02:09:22;;;;;;;127.33;43.90;;;;;;;-145.18;100.00;60484.78;5091966;28;20017;-65
2023/04/14 02:11:50;;;;;;;115.53;45.10;;;;;;;-145.18;100.00;60484.78;5091316;28;20027;-65
2023/04/14 02:14:17;;;;;;;122.90;45.50;;;;;;;-145.18;100.00;60484.78;5088736;28;20442;-65
2023/04/14 02:16:44;;;;;;;127.13;47.53;;;;;;;-145.18;100.00;60484.78;5090704;28;20028;-65
2023/04/14 02:19:10;;;;;;;124.43;48.23;;;;;;;-145.18;100.00;60484.78;5091300;28;20020;-65
2023/04/14 02:21:37;;;;;;;135.57;49.00;;;;;;;-145.18;100.00;60484.78;5090457;28;20015;-65
2023/04/14 02:24:03;;;;;;;125.70;47.17;;;;;;;-145.18;100.00;60484.78;5091154;28;20040;-65
2023/04/14 02:26:31;;;;;;;123.77;47.30;;;;;;;-145.18;100.00;60484.78;5089650;28;20016;-65
2023/04/14 02:29:09;;;;;;;124.23;45.87;;;;;;;-145.18;100.00;60484.78;5090968;28;20031;-65
2023/04/14 02:31:51;;;;;;;123.37;46.57;;;;;;;-145.18;100.00;60484.78;5087810;28;20054;-65
2023/04/14 02:34:23;;;;;;;117.97;45.00;;;;;;;-145.18;100.00;60484.78;5091535;28;20024;-65
2023/04/14 02:36:54;;;;;;;113.40;43.20;;;;;;;-145.18;100.00;60484.78;5091130;28;20024;-66
2023/04/14 02:39:25;;;;;;;112.10;41.57;;;;;;;-145.18;100.00;60484.78;5089048;28;20032;-65
2023/04/14 02:42:01;;;;;;;121.85;43.17;;;;;;;-145.18;100.00;60484.78;5089317;28;20016;-65
2023/04/14 02:44:31;;;;;;;121.53;45.57;;;;;;;-145.18;100.00;60484.78;5090238;28;20032;-65
2023/04/14 02:47:06;;;;;;;128.40;46.10;;;;;;;-145.18;100.00;60484.78;5090428;28;20019;-66
2023/04/14 02:49:39;;;;;;;120.37;44.43;;;;;;;-145.18;100.00;60484.78;5088118;28;20365;-65
2023/04/14 02:52:05;;;;;;;123.60;45.20;;;;;;;-145.18;100.00;60484.78;5085834;28;20036;-65
2023/04/14 02:54:34;;;;;;;137.37;48.13;;;;;;;-145.18;100.00;60484.78;5091638;28;20452;-66
2023/04/14 02:57:01;;;;;;;119.60;44.00;;;;;;;-145.18;100.00;60484.78;5086464;28;20095;-65
2023/04/14 02:59:28;;;;;;;106.80;41.47;;;;;;;-145.18;100.00;60484.78;5090785;28;20039;-66
2023/04/14 03:01:56;;;;;;;125.17;42.33;;;;;;;-145.18;100.00;60484.78;5090033;28;20035;-65
2023/04/14 03:04:23;;;;;;;108.93;40.30;;;;;;;-145.18;100.00;60484.78;5092968;28;20032;-66
2023/04/14 03:06:52;;;;;;;110.07;40.53;;;;;;;-145.18;100.00;60484.78;5095550;28;20077;-66
2023/04/14 03:09:20;;;;;;;109.20;40.43;;;;;;;-145.18;100.00;60484.78;5092929;28;20430;-65
2023/04/14 03:11:48;;;;;;;111.57;40.40;;;;;;;-145.18;100.00;60484.78;5095325;28;20024;-65
2023/04/14 03:14:16;;;;;;;104.23;39.30;;;;;;;-145.18;100.00;60484.78;5088732;28;20471;-65
2023/04/14 03:16:42;;;;;;;107.70;39.07;;;;;;;-145.18;100.00;60484.78;5094367;28;20035;-65
2023/04/14 03:19:11;;;;;;;100.27;37.63;;;;;;;-145.18;100.00;60484.78;5093589;28;20020;-65
2023/04/14 03:21:37;;;;;;;108.63;38.93;;;;;;;-145.18;100.00;60484.78;5094430;28;20085;-66
2023/04/14 03:24:05;;;;;;;114.60;39.27;;;;;;;-145.18;100.00;60484.78;5095380;28;20051;-65
2023/04/14 03:26:33;;;;;;;120.67;41.63;;;;;;;-145.18;100.00;60484.78;5090631;28;20384;-65
2023/04/14 03:29:04;;;;;;;128.20;43.17;;;;;;;-145.18;100.00;60484.78;5088767;28;20085;-65
2023/04/14 03:31:32;;;;;;;111.33;39.50;;;;;;;-145.18;100.00;60484.78;5094329;28;20046;-65
2023/04/14 03:34:01;;;;;;;108.60;38.10;;;;;;;-145.18;100.00;60484.78;5087484;28;20034;-65
2023/04/14 03:36:29;;;;;;;124.30;40.37;;;;;;;-145.18;100.00;60484.78;5089225;28;20054;-65
2023/04/14 03:38:58;;;;;;;125.37;41.57;;;;;;;-145.18;100.00;60484.78;5092314;28;20038;-65
2023/04/14 03:41:25;;;;;;;129.70;45.10;;;;;;;-145.18;100.00;60484.78;5094001;28;20036;-64
2023/04/14 03:43:53;;;;;;;137.40;48.60;;;;;;;-145.18;100.00;60484.78;5094972;28;20052;-65
2023/04/14 03:46:20;;;;;;;146.03;49.87;;;;;;;-145.18;100.00;60484.78;5095103;28;20520;-65
2023/04/14 03:48:49;;;;;;;153.53;51.07;;;;;;;-145.18;100.00;60484.78;5094986;28;20036;-65
2023/04/14 03:51:20;;;;;;;146.63;50.43;;;;;;;-145.18;100.00;60484.78;5094687;28;20020;-65
2023/04/14 03:53:47;;;;;;;145.57;51.20;;;;;;;-145.18;100.00;60484.78;5093578;28;20701;-65
2023/04/14 03:56:14;;;;;;;139.23;49.73;;;;;;;-145.18;100.00;60484.78;5092564;28;20024;-65
2023/04/14 03:58:42;;;;;;;146.53;48.77;;;;;;;-145.18;100.00;60484.78;5091984;28;20062;-65
2023/04/14 04:01:09;;;;;;;157.93;50.83;;;;;;;-145.18;100.00;60484.78;5092088;28;20028;-65
2023/04/14 04:03:37;;;;;;;145.43;52.40;;;;;;;-145.18;100.00;60484.78;5093258;28;20047;-65
2023/04/14 04:06:03;;;;;;;141.33;48.50;;;;;;;-145.18;100.00;60484.78;5093793;28;20395;-65
2023/04/14 04:08:31;;;;;;;146.03;48.50;;;;;;;-145.18;100.00;60484.78;5084219;28;20158;-65
2023/04/14 04:10:57;;;;;;;125.63;45.57;;;;;;;-145.18;100.00;60484.78;5091682;28;20391;-65
2023/04/14 04:13:23;;;;;;;126.77;42.77;;;;;;;-145.18;100.00;60484.78;5088938;28;20081;-65
2023/04/14 04:15:50;;;;;;;129.50;46.87;;;;;;;-145.18;100.00;60484.78;5091839;28;20475;-65
2023/04/14 04:18:17;;;;;;;138.20;47.60;;;;;;;-145.18;100.00;60484.78;5091622;28;20036;-65
2023/04/14 04:20:43;;;;;;;137.07;48.57;;;;;;;-145.18;100.00;60484.78;5093274;28;20085;-65
2023/04/14 04:23:11;;;;;;;144.07;50.17;;;;;;;-145.18;100.00;60484.78;5094056;28;20016;-65
2023/04/14 04:25:38;;;;;;;143.60;47.90;;;;;;;-145.18;100.00;60484.78;5093440;28;20426;-64
2023/04/14 04:28:04;;;;;;;143.90;48.00;;;;;;;-145.18;100.00;60484.78;5091242;28;20036;-65
2023/04/14 04:30:31;;;;;;;139.67;48.63;;;;;;;-145.18;100.00;60484.78;5091732;28;20031;-65
2023/04/14 04:32:57;;;;;;;152.27;50.80;;;;;;;-145.18;100.00;60484.78;5092005;28;20035;-65
2023/04/14 04:35:25;;;;;;;139.50;49.43;;;;;;;-145.18;100.00;60484.78;5090735;28;20052;-65
2023/04/14 04:37:52;;;;;;;137.43;48.67;;;;;;;-145.18;100.00;60484.78;5093387;28;20028;-65
2023/04/14 04:40:17;;;;;;;137.03;48.83;;;;;;;-145.18;100.00;60484.78;5093925;28;20019;-65
2023/04/14 04:42:43;;;;;;;138.90;50.70;;;;;;;-145.18;100.00;60484.78;5093676;28;20047;-65
2023/04/14 04:45:10;;;;;;;147.27;50.20;;;;;;;-145.18;100.00;60484.78;5088976;28;20044;-65
2023/04/14 04:47:35;;;;;;;163.20;53.90;;;;;;;-145.18;100.00;60484.78;5092197;28;20550;-65
2023/04/14 04:50:01;;;;;;;156.23;54.00;;;;;;;-145.18;100.00;60484.78;5093807;28;20103;-65
2023/04/14 04:52:26;;;;;;;155.57;51.97;;;;;;;-145.18;100.00;60484.78;5093396;28;20467;-65
2023/04/14 04:54:51;;;;;;;149.33;51.80;;;;;;;-145.18;100.00;60484.78;5093357;28;20024;-65
2023/04/14 04:57:20;;;;;;;144.27;50.93;;;;;;;-145.18;100.00;60484.78;5093708;28;20020;-65
2023/04/14 04:59:46;;;;;;;135.03;49.13;;;;;;;-145.18;100.00;60484.78;5093463;28;20023;-65
2023/04/14 05:02:12;;;;;;;142.53;51.03;;;;;;;-145.18;100.00;60484.78;5086250;28;20755;-65
2023/04/14 05:04:37;;;;;;;152.53;52.83;;;;;;;-145.18;100.00;60484.78;5093469;28;20047;-65
2023/04/14 05:07:02;;;;;;;165.90;54.67;;;;;;;-145.18;100.00;60484.78;5093189;28;20023;-64
2023/04/14 05:09:28;;;;;;;146.57;54.20;;;;;;;-145.18;100.00;60484.78;5093059;28;20020;-65
2023/04/14 05:11:53;;;;;;;142.07;53.83;;;;;;;-145.18;100.00;60484.78;5092532;28;20047;-64
2023/04/14 05:14:19;;;;;;;129.47;52.13;;;;;;;-145.18;100.00;60484.78;5074845;28;20111;-63
2023/04/14 05:16:45;;;;;;;141.73;53.93;;;;;;;-145.18;100.00;60484.78;5091562;28;20023;-64
2023/04/14 05:19:10;;;;;;;133.90;53.47;;;;;;;-145.18;100.00;60484.78;5093215;28;20024;-64
2023/04/14 05:21:35;;;;;;;128.73;51.70;;;;;;;-145.18;100.00;60484.78;5092910;28;20135;-64
2023/04/14 05:24:01;;;;;;;116.23;47.90;;;;;;;-145.18;100.00;60484.78;5092933;28;20047;-63
2023/04/14 05:26:26;;;;;;;112.73;47.37;;;;;;;-145.18;100.00;60484.78;5092337;28;20372;-63
2023/04/14 05:28:52;;;;;;;91.87;42.70;;;;;;;-145.18;100.00;60484.78;5092658;28;20023;-63
2023/04/14 05:31:18;;;;;;;82.93;39.53;;;;;;;-145.18;100.00;60484.78;5092682;28;20020;-63
2023/04/14 05:33:44;;;;;;;85.77;40.30;;;;;;;-145.18;100.00;60484.78;5092954;28;20103;-63
2023/04/14 05:36:10;;;;;;;71.33;37.67;;;;;;;-145.18;100.00;60484.78;5092580;28;20536;-62
2023/04/14 05:38:39;;;;;;;55.53;31.23;;;;;;;-145.18;100.00;60484.78;5092813;28;20028;-62
2023/04/14 05:41:06;;;;;;;56.70;29.30;;;;;;;-145.18;100.00;60484.78;5092476;28;20023;-62
2023/04/14 05:43:31;;;;;;;46.03;26.63;;;;;;;-145.18;100.00;60484.78;5092405;28;20028;-62
2023/04/14 05:45:57;;;;;;;44.80;27.30;;;;;;;-145.18;100.00;60484.78;5092788;28;20024;-62
2023/04/14 05:48:23;;;;;;;39.50;24.17;;;;;;;-145.18;100.00;60484.78;5092342;28;20020;-61
2023/04/14 05:50:49;;;;;;;36.63;21.87;;;;;;;-145.18;100.00;60484.78;5092408;28;20016;-62
2023/04/14 05:53:15;;;;;;;37.77;19.60;;;;;;;-145.18;100.00;60484.78;5092122;28;20077;-61
2023/04/14 05:55:41;;;;;;;31.23;18.57;;;;;;;-145.18;100.00;60484.78;5092579;28;20043;-61
2023/04/14 05:58:06;;;;;;;26.20;16.50;;;;;;;-145.18;100.00;60484.78;5092700;28;20499;-61
2023/04/14 06:00:31;;;;;;;25.20;15.23;;;;;;;-145.18;100.00;60484.78;5092041;28;20371;-61
2023/04/14 06:02:57;;;;;;;26.30;15.13;;;;;;;-145.18;100.00;60484.78;5092137;28;20044;-61
2023/04/14 06:05:23;;;;;;;24.03;13.77;;;;;;;-145.18;100.00;60484.78;5092503;28;20482;-61
2023/04/14 06:07:49;;;;;;;24.20;13.60;;;;;;;-145.18;100.00;60484.78;5091325;28;20023;-61
2023/04/14 06:10:14;;;;;;;19.50;11.47;;;;;;;-145.18;100.00;60484.78;5092525;28;20016;-61
2023/04/14 06:12:40;;;;;;;18.63;10.73;;;;;;;-145.18;100.00;60484.78;5092141;28;20024;-60
2023/04/14 06:15:06;;;;;;;15.87;10.17;;;;;;;-145.18;100.00;60484.78;5092202;28;20479;-61
2023/04/14 06:17:32;;;;;;;17.27;9.90;;;;;;;-145.18;100.00;60484.78;5091594;28;20099;-61
2023/04/14 06:19:58;;;;;;;17.77;10.27;;;;;;;-145.18;100.00;60484.78;5092396;28;20347;-61
2023/04/14 06:22:28;;;;;;;17.47;9.70;;;;;;;-145.18;100.00;60484.78;5092079;28;20019;-61
2023/04/14 06:24:56;;;;;;;16.80;8.73;;;;;;;-145.18;100.00;60484.78;5092354;28;20509;-61
2023/04/14 06:27:23;;;;;;;14.20;8.17;;;;;;;-145.18;100.00;60484.78;5091859;28;20020;-61
2023/04/14 06:29:49;;;;;;;16.33;8.93;;;;;;;-145.18;100.00;60484.78;5092131;28;20116;-61
2023/04/14 06:32:15;;;;;;;18.43;8.20;;;;;;;-145.18;100.00;60484.78;5091640;28;20460;-60
2023/04/14 06:34:40;;;;;;;14.93;8.30;;;;;;;-145.18;100.00;60484.78;5091835;28;20395;-61
2023/04/14 06:37:06;;;;;;;13.17;8.10;;;;;;;-145.18;100.00;60484.78;5091800;28;20024;-61
2023/04/14 06:39:31;;;;;;;11.13;7.40;;;;;;;-145.18;100.00;60484.78;5091347;28;20036;-61
2023/04/14 06:41:57;;;;;;;13.50;7.80;;;;;;;-145.18;100.00;60484.78;5092129;28;20054;-61
2023/04/14 06:44:22;;;;;;;13.37;7.77;;;;;;;-145.18;100.00;60484.78;5091652;28;20383;-61
2023/04/14 06:46:48;;;;;;;13.50;8.10;;;;;;;-145.18;100.00;60484.78;5092005;28;20035;-61
2023/04/14 06:49:15;;;;;;;16.70;8.53;;;;;;;-145.18;100.00;60484.78;5091620;28;20027;-61
2023/04/14 06:51:41;;;;;;;12.20;8.33;;;;;;;-145.18;100.00;60484.78;5091325;28;20020;-61
2023/04/14 06:54:06;;;;;;;12.33;7.30;;;;;;;-145.18;100.00;60484.78;5092036;28;20031;-61
2023/04/14 06:56:32;;;;;;;15.57;8.17;;;;;;;-145.18;100.00;60484.78;5091791;28;20138;-60
2023/04/14 06:58:57;;;;;;;16.27;7.87;;;;;;;-145.18;100.00;60484.78;5091551;28;20032;-61
2023/04/14 07:01:23;;;;;;;10.83;6.90;;;;;;;-145.18;100.00;60484.78;5091840;28;20089;-61
2023/04/14 07:03:48;;;;;;;12.02;6.57;;;;;;;-145.18;100.00;60484.78;5091361;28;20517;-61
2023/04/14 07:06:15;;;;;;;11.82;7.15;;;;;;;-145.18;100.00;60484.78;5089158;28;20019;-62
2023/04/14 07:08:41;;;;;;;11.60;6.50;;;;;;;-145.18;100.00;60484.78;5091644;28;20025;-61
2023/04/14 07:11:09;;;;;;;12.27;6.05;;;;;;;-145.18;100.00;60484.78;5091887;28;20485;-61
2023/04/14 07:13:36;;;;;;;10.50;6.20;;;;;;;-145.18;100.00;60484.78;5091708;28;20100;-61
2023/04/14 07:16:03;;;;;;;11.50;6.43;;;;;;;-145.18;100.00;60484.78;5087801;28;20043;-62
2023/04/14 07:18:30;;;;;;;9.82;6.43;;;;;;;-145.18;100.00;60484.78;5091787;28;20474;-62
2023/04/14 07:20:56;;;;;;;9.93;6.68;;;;;;;-145.18;100.00;60484.78;5091819;28;20016;-62
2023/04/14 07:23:22;;;;;;;14.65;6.72;;;;;;;-145.18;100.00;60484.78;5091756;28;20099;-63
2023/04/14 07:25:51;;;;;;;11.70;6.53;;;;;;;-145.18;100.00;60484.78;5091582;28;20423;-62
2023/04/14 07:28:18;;;;;;;11.88;5.78;;;;;;;-145.18;100.00;60484.78;5091275;28;20020;-62
2023/04/14 07:30:44;;;;;;;11.00;6.20;;;;;;;-145.18;100.00;60484.78;5091362;28;20048;-62
2023/04/14 07:33:09;;;;;;;12.05;6.53;;;;;;;-145.18;100.00;60484.78;5091334;28;20043;-61
2023/04/14 07:35:35;;;;;;;11.40;6.13;;;;;;;-145.18;100.00;60484.78;5091267;28;20093;-61
2023/04/14 07:38:01;;;;;;;10.32;5.72;;;;;;;-145.18;100.00;60484.78;5090863;28;20020;-60
2023/04/14 07:40:26;;;;;;;9.63;5.35;;;;;;;-145.18;100.00;60484.78;5091559;28;20447;-61
2023/04/14 07:42:51;;;;;;;12.15;6.07;;;;;;;-145.18;100.00;60484.78;5090976;28;20027;-60
2023/04/14 07:45:17;;;;;;;9.90;5.15;;;;;;;-145.18;100.00;60484.78;5091361;28;20081;-60
2023/04/14 07:47:43;;;;;;;9.82;5.00;;;;;;;-145.18;100.00;60484.78;5094616;28;20030;-59
2023/04/14 07:50:09;;;;;;;9.57;4.72;;;;;;;-145.18;100.00;60484.78;5076788;28;20024;-60
2023/04/14 07:52:35;;;;;;;9.95;4.32;;;;;;;-145.18;100.00;60484.78;5094997;28;20499;-59
2023/04/14 07:55:01;;;;;;;7.45;3.90;;;;;;;-145.18;100.00;60484.78;5094942;28;20020;-60
2023/04/14 07:57:27;;;;;;;7.53;3.83;;;;;;;-145.18;100.00;60484.78;5094975;28;20024;-59
2023/04/14 07:59:52;;;;;;;10.18;4.30;;;;;;;-145.18;100.00;60484.78;5076414;28;20543;-59
2023/04/14 08:02:18;;;;;;;10.88;4.50;;;;;;;-145.18;100.00;60484.78;5094661;28;20110;-59
2023/04/14 08:04:43;;;;;;;8.73;5.05;;;;;;;-145.18;100.00;60484.78;5094448;28;20035;-59
2023/04/14 08:07:09;;;;;;;9.77;4.15;;;;;;;-145.18;100.00;60484.78;5094543;28;20032;-59
2023/04/14 08:09:34;;;;;;;10.52;5.15;;;;;;;-145.18;100.00;60484.78;5094643;28;20081;-60
2023/04/14 08:12:00;;;;;;;10.82;4.68;;;;;;;-145.18;100.00;60484.78;5094670;28;20379;-59
2023/04/14 08:14:25;;;;;;;9.20;4.85;;;;;;;-145.18;100.00;60484.78;5094422;28;20533;-59
2023/04/14 08:16:51;;;;;;;8.73;4.47;;;;;;;-145.18;100.00;60484.78;5093550;28;20491;-60
2023/04/14 08:19:16;;;;;;;9.70;5.00;;;;;;;-145.18;100.00;60484.78;5094455;28;20023;-59
2023/04/14 08:21:42;;;;;;;12.45;5.88;;;;;;;-145.18;100.00;60484.78;5094713;28;20024;-60
2023/04/14 08:24:07;;;;;;;10.95;5.40;;;;;;;-145.18;100.00;60484.78;5094175;28;20506;-60
2023/04/14 08:26:33;;;;;;;14.27;5.15;;;;;;;-145.18;100.00;60484.78;5094163;28;20024;-60
2023/04/14 08:28:58;;;;;;;11.02;6.35;;;;;;;-145.18;100.00;60484.78;5094394;28;20417;-61
2023/04/14 08:31:24;;;;;;;11.15;5.80;;;;;;;-145.18;100.00;60484.78;5093946;28;20460;-61
2023/04/14 08:33:50;;;;;;;14.35;4.95;;;;;;;-145.18;100.00;60484.78;5093001;28;20024;-60
2023/04/14 08:36:15;;;;;;;8.07;4.57;;;;;;;-145.18;100.00;60484.78;5093764;28;20524;-60
2023/04/14 08:38:41;;;;;;;9.05;4.07;;;;;;;-145.18;100.00;60484.78;5094210;28;20013;-60
2023/04/14 08:41:08;;;;;;;10.73;4.53;;;;;;;-145.18;100.00;60484.78;5094108;28;20031;-60
2023/04/14 08:43:34;;;;;;;8.05;3.97;;;;;;;-145.18;100.00;60484.78;5094074;28;20032;-60
2023/04/14 08:46:01;;;;;;;9.93;4.55;;;;;;;-145.18;100.00;60484.78;5094232;28;20020;-61
2023/04/14 08:48:29;;;;;;;6.47;3.20;;;;;;;-145.18;100.00;60484.78;5093600;28;20563;-60
2023/04/14 08:51:03;;;;;;;7.70;4.00;;;;;;;-145.18;100.00;60484.78;5093407;28;20031;-60
2023/04/14 08:53:31;;;;;;;9.43;4.75;;;;;;;-145.18;100.00;60484.78;5093608;28;20019;-61
2023/04/14 08:56:01;;;;;;;10.23;4.93;;;;;;;-145.18;100.00;60484.78;5093588;28;20024;-60
2023/04/14 08:58:28;;;;;;;10.35;4.25;;;;;;;-145.18;100.00;60484.78;5092408;28;20528;-61
2023/04/14 09:00:54;;;;;;;10.55;4.80;;;;;;;-145.18;100.00;60484.78;5075384;28;20794;-60
2023/04/14 09:03:20;;;;;;;10.48;4.70;;;;;;;-145.18;100.00;60484.78;5093154;28;20044;-60
2023/04/14 09:05:46;;;;;;;9.40;4.22;;;;;;;-145.18;100.00;60484.78;5092639;28;20027;-60
2023/04/14 09:08:12;;;;;;;10.60;4.80;;;;;;;-145.18;100.00;60484.78;5093512;28;20050;-60
2023/04/14 09:10:41;;;;;;;11.02;4.15;;;;;;;-145.18;100.00;60484.78;5093072;28;20120;-60
2023/04/14 09:13:07;;;;;;;8.68;4.45;;;;;;;-145.18;100.00;60484.78;5093535;28;20024;-60
2023/04/14 09:15:34;;;;;;;11.38;4.15;;;;;;;-145.18;100.00;60484.78;5093228;28;20016;-61
2023/04/14 09:18:00;;;;;;;8.38;4.47;;;;;;;-145.18;100.00;60484.78;5093503;28;20437;-60
2023/04/14 09:20:27;;;;;;;10.45;4.50;;;;;;;-145.18;100.00;60484.78;5093367;28;20015;-61
2023/04/14 09:22:53;;;;;;;7.35;3.35;;;;;;;-145.18;100.00;60484.78;5093400;28;20024;-60
2023/04/14 09:25:20;;;;;;;9.68;4.82;;;;;;;-145.18;100.00;60484.78;5092988;28;20540;-61
2023/04/14 09:27:47;;;;;;;10.27;4.60;;;;;;;-145.18;100.00;60484.78;5092877;28;20024;-61
2023/04/14 09:30:14;;;;;;;10.95;5.35;;;;;;;-145.18;100.00;60484.78;5092491;28;20020;-61
2023/04/14 09:32:42;;;;;;;9.80;4.03;;;;;;;-145.18;100.00;60484.78;5092768;28;20031;-61
2023/04/14 09:35:12;;;;;;;8.10;3.67;;;;;;;-145.18;100.00;60484.78;5093181;28;20073;-62
2023/04/14 09:37:45;;;;;;;5.22;3.03;;;;;;;-145.18;100.00;60484.78;5092775;28;20016;-60
2023/04/14 09:40:26;;;;;;;7.60;3.15;;;;;;;-145.18;100.00;60484.78;5093104;28;20472;-61
2023/04/14 09:42:53;;;;;;;6.30;3.03;;;;;;;-145.18;100.00;60484.78;5092699;28;20532;-61
2023/04/14 09:45:18;;;;;;;9.77;3.22;;;;;;;-145.18;100.00;60484.78;5092902;28;20395;-61
2023/04/14 09:47:44;;;;;;;5.35;2.53;;;;;;;-145.18;100.00;60484.78;5092799;28;20027;-61
2023/04/14 09:50:09;;;;;;;8.30;2.72;;;;;;;-145.18;100.00;60484.78;5092560;28;20532;-61
2023/04/14 09:52:39;;;;;;;9.98;3.30;;;;;;;-145.18;100.00;60484.78;5092634;28;20024;-61
2023/04/14 09:55:13;;;;;;;10.93;2.90;;;;;;;-145.18;100.00;60484.78;5092621;28;20724;-60
2023/04/14 09:57:43;;;;;;;8.15;3.53;;;;;;;-145.18;100.00;60484.78;5092069;28;20349;-61
2023/04/14 10:00:23;;;;;;;10.55;4.25;;;;;;;-145.18;100.00;60484.78;5092355;28;20044;-61
2023/04/14 10:02:50;;;;;;;10.73;3.70;;;;;;;-145.18;100.00;60484.78;5091711;28;20032;-61
2023/04/14 10:05:20;;;;;;;8.60;3.35;;;;;;;-145.18;100.00;60484.78;5092393;28;20364;-61
2023/04/14 10:07:46;;;;;;;8.02;3.50;;;;;;;-145.18;100.00;60484.78;5092447;28;20060;-61
2023/04/14 10:10:12;;;;;;;5.80;2.63;;;;;;;-145.18;100.00;60484.78;5092441;28;20786;-62
2023/04/14 10:12:41;;;;;;;8.20;3.28;;;;;;;-145.18;100.00;60484.78;5092426;28;20467;-62
2023/04/14 10:15:09;;;;;;;7.13;3.17;;;;;;;-145.18;100.00;60484.78;5091587;28;20084;-62
2023/04/14 10:17:36;;;;;;;11.30;3.60;;;;;;;-145.18;100.00;60484.78;5092325;28;20024;-61
2023/04/14 10:20:02;;;;;;;6.25;2.97;;;;;;;-145.18;100.00;60484.78;5092133;28;20020;-61
2023/04/14 10:22:28;;;;;;;8.77;3.20;;;;;;;-145.18;100.00;60484.78;5092081;28;20024;-62
2023/04/14 10:24:55;;;;;;;5.30;2.50;;;;;;;-145.18;100.00;60484.78;5092089;28;20024;-62
2023/04/14 10:27:21;;;;;;;8.15;2.97;;;;;;;-145.18;100.00;60484.78;5092019;28;20080;-61
2023/04/14 10:29:47;;;;;;;5.68;2.63;;;;;;;-145.18;100.00;60484.78;5091698;28;20110;-61
2023/04/14 10:32:15;;;;;;;7.20;2.90;;;;;;;-145.18;100.00;60484.78;5091543;28;20174;-62
2023/04/14 10:34:56;;;;;;;10.52;3.30;;;;;;;-145.18;100.00;60484.78;5091847;28;20055;-62
2023/04/14 10:37:22;;;;;;;8.15;3.03;;;;;;;-145.18;100.00;60484.78;5092151;28;20019;-63
2023/04/14 10:39:55;;;;;;;6.75;2.92;;;;;;;-145.18;100.00;60484.78;5091941;28;20481;-62
2023/04/14 10:42:22;;;;;;;9.00;3.47;;;;;;;-145.18;100.00;60484.78;5091725;28;20020;-62
2023/04/14 10:45:04;;;;;;;9.48;2.63;;;;;;;-145.18;100.00;60484.78;5088088;28;20031;-62
2023/04/14 10:47:30;;;;;;;8.52;2.53;;;;;;;-145.18;100.00;60484.78;5091360;28;20095;-62
2023/04/14 10:49:57;;;;;;;5.60;2.00;;;;;;;-145.18;100.00;60484.78;5091331;28;20111;-63
2023/04/14 10:52:50;;;;;;;4.43;1.70;;;;;;;-145.18;100.00;60484.78;5091536;28;20404;-62
2023/04/14 10:55:20;;;;;;;5.68;2.22;;;;;;;-145.18;100.00;60484.78;5089091;28;20352;-63
2023/04/14 10:57:46;;;;;;;6.18;2.13;;;;;;;-145.18;100.00;60484.78;5087831;28;20048;-63
2023/04/14 11:00:24;;;;;;;7.70;2.40;;;;;;;-145.18;100.00;60484.78;5092034;28;20085;-63
2023/04/14 11:03:15;;;;;;;6.38;2.28;;;;;;;-145.18;100.00;60484.78;5091054;28;21002;-64